Time;durP1;ratioP1;P1;durP2;ratioP2;P2;SDS_P1;SDS_P2;PMS_P1;PMS_P2;Temp;Humidity;BMP_temperature;BMP_pressure;BME280_temperature;BME280_humidity;BME280_pressure;Samples;Min_cycle;Max_cycle;Signal;HPM_P1;HPM_P2
2024/01/20 00:02:16;;;;;;;14.88;4.68;;;0.70;99.90;;;;;;5010738;28;20037;-82
2024/01/20 00:04:42;;;;;;;10.85;5.10;;;0.70;99.90;;;;;;5010759;28;20084;-82
2024/01/20 00:07:08;;;;;;;23.92;4.55;;;2.20;99.90;;;;;;5010453;28;20038;-82
2024/01/20 00:09:33;;;;;;;12.32;4.85;;;0.80;99.90;;;;;;5010596;28;20396;-82
2024/01/20 00:11:59;;;;;;;13.85;4.28;;;2.20;99.90;;;;;;5010407;28;20401;-83
2024/01/20 00:14:25;;;;;;;14.05;4.43;;;1.90;99.90;;;;;;5010796;28;20835;-83
2024/01/20 00:16:50;;;;;;;18.88;4.95;;;2.20;99.90;;;;;;5013252;28;20253;-81
2024/01/20 00:19:16;;;;;;;17.08;4.78;;;0.70;99.90;;;;;;5014305;28;20054;-82
2024/01/20 00:21:42;;;;;;;17.63;5.53;;;2.00;99.90;;;;;;5010765;28;20052;-82
2024/01/20 00:24:07;;;;;;;13.63;5.25;;;0.60;99.90;;;;;;5010723;28;20070;-82
2024/01/20 00:26:33;;;;;;;11.02;6.22;;;0.50;99.90;;;;;;5010504;28;20441;-82
2024/01/20 00:28:59;;;;;;;11.38;4.93;;;0.70;99.90;;;;;;5009953;28;20038;-83
2024/01/20 00:31:24;;;;;;;11.70;5.32;;;0.50;99.90;;;;;;5010504;28;20053;-82
2024/01/20 00:33:51;;;;;;;12.13;5.55;;;0.60;99.90;;;;;;5010300;28;20048;-83
2024/01/20 00:36:16;;;;;;;10.27;5.57;;;0.60;99.90;;;;;;5013098;28;20049;-81
2024/01/20 00:38:42;;;;;;;10.10;5.22;;;0.60;99.90;;;;;;5014178;28;20401;-82
2024/01/20 00:41:10;;;;;;;8.82;5.47;;;0.40;99.90;;;;;;5014488;28;20501;-81
2024/01/20 00:43:36;;;;;;;19.48;6.43;;;0.60;99.90;;;;;;5013856;28;20086;-82
2024/01/20 00:46:02;;;;;;;17.88;5.45;;;0.60;99.90;;;;;;5014226;28;20087;-83
2024/01/20 00:48:28;;;;;;;18.05;6.15;;;0.60;99.90;;;;;;5014311;28;20045;-82
2024/01/20 00:50:53;;;;;;;12.85;5.95;;;0.50;99.90;;;;;;4980258;28;20186;-82
2024/01/20 00:53:19;;;;;;;13.98;6.95;;;0.50;99.90;;;;;;5013969;28;20455;-83
2024/01/20 00:55:45;;;;;;;16.33;6.55;;;0.60;99.90;;;;;;4996159;28;20073;-82
2024/01/20 00:58:10;;;;;;;13.95;6.25;;;0.70;99.90;;;;;;4996382;28;20421;-82
2024/01/20 01:00:37;;;;;;;9.60;5.88;;;0.60;99.90;;;;;;4995371;28;20053;-83
2024/01/20 01:03:03;;;;;;;18.33;7.35;;;0.60;99.90;;;;;;4996342;28;20077;-82
2024/01/20 01:05:29;;;;;;;12.50;6.72;;;0.60;99.90;;;;;;5013848;28;20076;-82
2024/01/20 01:07:56;;;;;;;14.98;6.75;;;0.60;99.90;;;;;;5013941;28;20045;-82
2024/01/20 01:10:22;;;;;;;16.42;7.10;;;0.60;99.90;;;;;;5013955;28;20045;-82
2024/01/20 01:12:47;;;;;;;18.05;7.88;;;2.10;99.90;;;;;;5013803;28;20137;-86
2024/01/20 01:15:13;;;;;;;18.73;6.38;;;1.40;99.90;;;;;;5016999;28;20052;-83
2024/01/20 01:17:38;;;;;;;18.25;6.43;;;2.30;99.90;;;;;;5014303;28;20054;-82
2024/01/20 01:20:06;;;;;;;10.75;6.68;;;1.90;99.90;;;;;;4995814;28;20414;-82
2024/01/20 01:22:31;;;;;;;13.13;6.57;;;0.70;99.90;;;;;;5013689;28;20056;-83
2024/01/20 01:24:57;;;;;;;15.32;7.13;;;0.70;99.90;;;;;;5013278;28;20071;-82
2024/01/20 01:27:23;;;;;;;20.65;7.75;;;0.60;99.90;;;;;;5013473;28;20096;-84
2024/01/20 01:29:48;;;;;;;14.10;7.18;;;0.70;99.90;;;;;;5013301;28;20382;-82
2024/01/20 01:32:14;;;;;;;14.43;7.32;;;0.60;99.90;;;;;;5012891;28;20091;-83
2024/01/20 01:34:39;;;;;;;17.90;7.20;;;0.80;99.90;;;;;;5013228;28;20121;-82
2024/01/20 01:37:05;;;;;;;17.00;7.35;;;0.80;99.90;;;;;;5013082;28;20510;-83
2024/01/20 01:39:31;;;;;;;12.45;7.05;;;0.90;99.90;;;;;;5012867;28;20521;-81
2024/01/20 01:41:56;;;;;;;12.35;6.88;;;0.70;99.90;;;;;;5012952;28;20084;-82
2024/01/20 01:44:22;;;;;;;14.50;7.88;;;0.80;99.90;;;;;;4995341;28;20061;-82
2024/01/20 01:46:48;;;;;;;22.67;7.55;;;0.80;99.90;;;;;;4995125;28;20041;-83
2024/01/20 01:49:14;;;;;;;18.38;8.07;;;0.90;99.90;;;;;;4994971;28;20057;-84
2024/01/20 01:51:39;;;;;;;17.65;6.90;;;1.60;99.90;;;;;;5013028;28;20038;-83
2024/01/20 01:54:08;;;;;;;14.55;6.72;;;0.70;99.90;;;;;;5012915;28;20050;-83
2024/01/20 01:56:34;;;;;;;23.80;7.35;;;0.80;99.90;;;;;;4995217;28;20046;-83
2024/01/20 01:59:00;;;;;;;16.15;8.18;;;0.90;99.90;;;;;;4994945;28;20045;-82
2024/01/20 02:01:26;;;;;;;16.25;7.78;;;0.80;99.90;;;;;;5012565;28;20050;-83
2024/01/20 02:03:52;;;;;;;20.60;8.00;;;2.30;99.90;;;;;;5012092;28;20423;-83
2024/01/20 02:06:17;;;;;;;19.23;7.72;;;0.80;99.90;;;;;;4994697;28;20049;-82
2024/01/20 02:08:44;;;;;;;15.18;7.60;;;0.80;99.90;;;;;;4978391;28;20061;-83
2024/01/20 02:11:09;;;;;;;13.07;7.75;;;0.70;99.90;;;;;;5012254;28;20409;-82
2024/01/20 02:13:35;;;;;;;13.48;7.55;;;2.40;99.90;;;;;;5012282;28;20042;-83
2024/01/20 02:16:02;;;;;;;21.40;8.45;;;2.40;99.90;;;;;;5012383;28;20041;-83
2024/01/20 02:18:28;;;;;;;17.60;7.88;;;0.80;99.90;;;;;;5011879;28;20382;-82
2024/01/20 02:20:54;;;;;;;16.88;8.02;;;0.60;99.90;;;;;;4978131;28;20481;-82
2024/01/20 02:23:20;;;;;;;13.43;7.78;;;1.90;99.90;;;;;;5012165;28;20056;-83
2024/01/20 02:25:47;;;;;;;16.98;8.93;;;0.60;99.90;;;;;;4994251;28;20061;-82
2024/01/20 02:28:14;;;;;;;20.02;8.75;;;0.50;99.90;;;;;;4987391;28;20098;-83
2024/01/20 02:30:41;;;;;;;23.20;9.20;;;0.50;99.90;;;;;;5011808;28;20120;-82
2024/01/20 02:33:07;;;;;;;14.52;7.90;;;0.50;99.90;;;;;;5012040;28;20394;-82
2024/01/20 02:35:32;;;;;;;16.42;9.43;;;0.60;99.90;;;;;;5011571;28;20038;-83
2024/01/20 02:38:00;;;;;;;21.92;9.57;;;0.40;99.90;;;;;;5014547;28;20512;-83
2024/01/20 02:40:26;;;;;;;15.93;9.38;;;0.50;99.90;;;;;;5011654;28;20397;-83
2024/01/20 02:42:52;;;;;;;21.40;9.52;;;1.30;99.90;;;;;;5012520;28;20042;-83
2024/01/20 02:45:18;;;;;;;22.67;10.20;;;1.60;99.90;;;;;;5013169;28;20112;-83
2024/01/20 02:47:44;;;;;;;17.23;9.30;;;0.40;99.90;;;;;;4994583;28;20042;-83
2024/01/20 02:50:10;;;;;;;20.88;11.02;;;1.40;99.90;;;;;;5016082;28;20476;-82
2024/01/20 02:52:35;;;;;;;19.27;10.50;;;0.30;99.90;;;;;;5012307;28;20120;-84
2024/01/20 02:55:01;;;;;;;17.67;9.48;;;0.30;99.90;;;;;;4994346;28;20089;-81
2024/01/20 02:57:27;;;;;;;21.80;11.90;;;0.40;99.90;;;;;;5012200;28;20038;-83
2024/01/20 02:59:52;;;;;;;24.67;12.35;;;0.30;99.90;;;;;;5010982;28;20046;-83
2024/01/20 03:02:18;;;;;;;23.50;11.35;;;1.60;99.90;;;;;;5011903;28;20046;-82
2024/01/20 03:04:44;;;;;;;21.27;12.48;;;0.30;99.90;;;;;;5000285;28;20056;-81
2024/01/20 03:07:09;;;;;;;24.60;11.88;;;0.30;99.90;;;;;;5011418;28;20045;-82
2024/01/20 03:09:35;;;;;;;19.52;12.88;;;0.40;99.90;;;;;;5012538;28;20099;-83
2024/01/20 03:12:01;;;;;;;20.52;11.65;;;0.20;99.90;;;;;;5011431;28;20046;-83
2024/01/20 03:14:27;;;;;;;28.90;13.90;;;0.30;99.90;;;;;;5016099;28;20524;-83
2024/01/20 03:16:53;;;;;;;24.35;13.27;;;0.20;99.90;;;;;;5011574;28;20073;-82
2024/01/20 03:19:19;;;;;;;22.15;11.80;;;0.40;99.90;;;;;;4994226;28;20062;-82
2024/01/20 03:21:45;;;;;;;22.13;12.23;;;1.60;99.90;;;;;;5011221;28;20046;-83
2024/01/20 03:24:10;;;;;;;26.05;15.38;;;0.30;99.90;;;;;;4993938;28;20081;-81
2024/01/20 03:26:36;;;;;;;26.58;14.63;;;0.20;99.90;;;;;;4993788;28;20050;-82
2024/01/20 03:29:02;;;;;;;24.52;13.88;;;1.30;99.90;;;;;;5017029;28;20061;-83
2024/01/20 03:31:28;;;;;;;25.63;15.52;;;0.10;99.90;;;;;;5031467;28;20719;-82
2024/01/20 03:33:53;;;;;;;26.70;15.63;;;0.00;99.90;;;;;;5013229;28;20052;-82
2024/01/20 03:36:19;;;;;;;27.35;15.98;;;0.00;99.90;;;;;;5031026;28;20053;-83
2024/01/20 03:38:45;;;;;;;32.78;15.77;;;1.10;99.90;;;;;;5012774;28;20107;-82
2024/01/20 03:41:10;;;;;;;29.70;16.30;;;-0.20;99.90;;;;;;5030762;28;20053;-83
2024/01/20 03:43:36;;;;;;;28.20;15.52;;;0.00;99.90;;;;;;5030855;28;20072;-82
2024/01/20 03:46:02;;;;;;;26.35;15.05;;;0.70;99.90;;;;;;5013242;28;20407;-83
2024/01/20 03:48:27;;;;;;;29.92;15.45;;;0.00;99.90;;;;;;5013057;28;20076;-84
2024/01/20 03:50:53;;;;;;;28.90;15.60;;;0.90;99.90;;;;;;5030835;28;20690;-82
2024/01/20 03:53:19;;;;;;;34.53;15.70;;;-0.20;99.90;;;;;;5030601;28;20084;-84
2024/01/20 03:55:44;;;;;;;24.65;15.18;;;-0.20;99.90;;;;;;5030345;28;20053;-83
2024/01/20 03:58:11;;;;;;;28.77;15.35;;;0.00;99.90;;;;;;5030436;28;20052;-83
2024/01/20 04:00:36;;;;;;;28.33;16.30;;;-0.10;99.90;;;;;;5009637;28;20088;-82
2024/01/20 04:03:03;;;;;;;27.33;15.80;;;-0.20;99.90;;;;;;5009296;28;20381;-82
2024/01/20 04:05:29;;;;;;;27.38;16.33;;;0.00;99.90;;;;;;5012785;28;20496;-83
2024/01/20 04:07:54;;;;;;;30.10;16.08;;;0.30;99.90;;;;;;5030347;28;20091;-83
2024/01/20 04:10:20;;;;;;;25.85;16.25;;;-0.10;99.90;;;;;;5029218;28;20087;-83
2024/01/20 04:12:46;;;;;;;35.67;15.77;;;1.50;99.90;;;;;;5029908;28;20053;-82
2024/01/20 04:15:11;;;;;;;32.88;16.63;;;-0.20;99.90;;;;;;5027988;28;20124;-82
2024/01/20 04:17:37;;;;;;;32.95;17.25;;;1.10;99.90;;;;;;5028578;28;20053;-82
2024/01/20 04:20:04;;;;;;;27.33;16.40;;;-0.20;99.90;;;;;;5028797;28;20075;-83
2024/01/20 04:22:30;;;;;;;26.13;16.63;;;-0.10;99.90;;;;;;5010624;28;20053;-83
2024/01/20 04:24:56;;;;;;;32.92;17.27;;;-0.20;99.90;;;;;;4994165;28;20060;-82
2024/01/20 04:27:21;;;;;;;27.77;16.00;;;-0.10;99.90;;;;;;5022916;28;20053;-83
2024/01/20 04:29:47;;;;;;;31.23;16.80;;;-0.30;99.90;;;;;;4992499;28;20034;-82
2024/01/20 04:32:13;;;;;;;27.38;16.30;;;-0.30;99.90;;;;;;4993130;28;20397;-81
2024/01/20 04:34:39;;;;;;;28.25;15.82;;;-0.10;99.90;;;;;;4999004;28;20485;-83
2024/01/20 04:37:06;;;;;;;28.40;16.42;;;-0.20;99.90;;;;;;4992571;28;20057;-82
2024/01/20 04:39:31;;;;;;;26.50;16.20;;;-0.20;99.90;;;;;;4992984;28;20058;-83
2024/01/20 04:41:57;;;;;;;27.83;17.45;;;1.20;99.90;;;;;;5010300;28;20044;-82
2024/01/20 04:44:23;;;;;;;32.10;16.45;;;-0.10;99.90;;;;;;4996891;28;20120;-80
2024/01/20 04:46:49;;;;;;;37.10;17.48;;;-0.30;99.90;;;;;;5011857;28;20200;-82
2024/01/20 04:49:14;;;;;;;31.75;18.15;;;-0.20;99.90;;;;;;5010195;28;20061;-80
2024/01/20 04:51:40;;;;;;;29.77;16.60;;;-0.50;99.90;;;;;;5006867;28;20037;-83
2024/01/20 04:54:06;;;;;;;32.45;17.98;;;1.10;99.90;;;;;;5010216;28;20124;-83
2024/01/20 04:56:31;;;;;;;29.13;17.42;;;-0.40;99.90;;;;;;5010332;28;20046;-83
2024/01/20 04:58:57;;;;;;;31.77;18.73;;;-0.30;99.90;;;;;;5009506;28;20088;-82
2024/01/20 05:01:22;;;;;;;39.20;20.25;;;-0.40;99.90;;;;;;4998206;28;20049;-83
2024/01/20 05:03:48;;;;;;;30.85;17.65;;;-0.30;99.90;;;;;;4976431;28;20046;-83
2024/01/20 05:06:14;;;;;;;34.58;18.88;;;-0.50;99.90;;;;;;5010795;28;20087;-83
2024/01/20 05:08:39;;;;;;;31.40;18.65;;;-0.60;99.90;;;;;;4992310;28;20053;-82
2024/01/20 05:11:06;;;;;;;30.00;18.42;;;-0.40;99.90;;;;;;5010093;28;20046;-82
2024/01/20 05:13:32;;;;;;;32.78;17.67;;;-0.60;99.90;;;;;;4991882;28;20046;-82
2024/01/20 05:15:57;;;;;;;32.40;17.95;;;-0.60;99.90;;;;;;5009772;28;20120;-82
2024/01/20 05:18:23;;;;;;;36.85;17.73;;;-0.60;99.90;;;;;;4992016;28;20444;-83
2024/01/20 05:20:49;;;;;;;37.28;18.55;;;1.20;99.90;;;;;;5009898;28;20049;-81
2024/01/20 05:23:14;;;;;;;36.35;18.35;;;-0.50;99.90;;;;;;4994595;28;20158;-83
2024/01/20 05:25:40;;;;;;;34.53;18.00;;;-0.50;99.90;;;;;;4995784;28;20053;-82
2024/01/20 05:28:05;;;;;;;36.03;18.63;;;0.50;99.90;;;;;;4995637;28;20054;-83
2024/01/20 05:30:32;;;;;;;37.97;19.38;;;0.50;99.90;;;;;;4995070;28;20136;-82
2024/01/20 05:32:57;;;;;;;37.38;18.27;;;-0.60;99.90;;;;;;5014432;28;20084;-83
2024/01/20 05:35:23;;;;;;;38.10;19.38;;;-0.70;99.90;;;;;;5013411;28;20077;-83
2024/01/20 05:37:49;;;;;;;36.40;18.67;;;-0.80;99.90;;;;;;4987001;28;20096;-83
2024/01/20 05:40:15;;;;;;;33.72;19.75;;;-0.80;99.90;;;;;;4995595;28;20058;-83
2024/01/20 05:42:40;;;;;;;34.72;20.40;;;-0.80;99.90;;;;;;4979440;28;20050;-82
2024/01/20 05:45:09;;;;;;;32.63;18.42;;;-0.80;99.90;;;;;;5012888;28;20090;-82
2024/01/20 05:47:36;;;;;;;33.03;18.35;;;-0.70;99.90;;;;;;5012720;28;20120;-82
2024/01/20 05:50:03;;;;;;;36.13;19.58;;;-0.70;99.90;;;;;;5013036;28;20054;-83
2024/01/20 05:52:29;;;;;;;36.05;19.42;;;-0.70;99.90;;;;;;4995398;28;20393;-82
2024/01/20 05:54:54;;;;;;;39.53;20.63;;;-0.90;99.90;;;;;;4995172;28;20034;-81
2024/01/20 05:57:20;;;;;;;34.42;18.65;;;0.50;99.90;;;;;;5012718;28;20112;-81
2024/01/20 05:59:45;;;;;;;35.40;19.88;;;-0.80;99.90;;;;;;4995260;28;20093;-81
2024/01/20 06:02:11;;;;;;;37.08;18.48;;;-0.80;99.90;;;;;;5013039;28;20510;-83
2024/01/20 06:04:37;;;;;;;35.85;18.65;;;0.40;99.90;;;;;;5012793;28;20389;-82
2024/01/20 06:07:04;;;;;;;39.05;18.85;;;-0.80;99.90;;;;;;4994875;28;20505;-82
2024/01/20 06:09:30;;;;;;;42.15;18.80;;;-0.80;99.90;;;;;;5012529;28;20034;-81
2024/01/20 06:11:55;;;;;;;33.25;17.73;;;-0.80;99.90;;;;;;5012328;28;20045;-82
2024/01/20 06:14:21;;;;;;;33.38;18.45;;;-1.00;99.90;;;;;;4999133;28;20574;-82
2024/01/20 06:16:47;;;;;;;36.00;19.42;;;-0.80;99.90;;;;;;4994620;28;20046;-80
2024/01/20 06:19:12;;;;;;;43.03;20.38;;;-0.60;99.90;;;;;;5014240;28;20046;-82
2024/01/20 06:21:38;;;;;;;39.00;18.23;;;-1.10;99.90;;;;;;5012513;28;20046;-82
2024/01/20 06:24:04;;;;;;;40.53;18.17;;;-1.00;99.90;;;;;;5016129;28;20042;-82
2024/01/20 06:26:30;;;;;;;35.80;18.80;;;0.40;99.90;;;;;;4979014;28;20045;-82
2024/01/20 06:28:55;;;;;;;36.78;17.65;;;-0.80;99.90;;;;;;5011770;28;20077;-82
2024/01/20 06:31:23;;;;;;;40.38;18.92;;;-0.80;99.90;;;;;;5017789;28;20057;-81
2024/01/20 06:33:49;;;;;;;38.22;18.63;;;0.10;99.90;;;;;;4995731;28;20099;-81
2024/01/20 06:36:15;;;;;;;35.65;16.58;;;-0.80;99.90;;;;;;5012595;28;20132;-82
2024/01/20 06:38:40;;;;;;;38.83;17.13;;;-0.90;99.90;;;;;;4996141;28;20135;-83
2024/01/20 06:41:06;;;;;;;40.15;18.02;;;-0.80;99.90;;;;;;4994762;28;20105;-81
2024/01/20 06:43:32;;;;;;;37.15;17.30;;;-0.80;99.90;;;;;;5012152;28;20500;-82
2024/01/20 06:45:58;;;;;;;36.78;18.98;;;-0.80;99.90;;;;;;4995545;28;20054;-83
2024/01/20 06:48:24;;;;;;;35.92;18.00;;;-0.20;99.90;;;;;;4994301;28;20107;-83
2024/01/20 06:50:49;;;;;;;41.90;19.30;;;-0.80;99.90;;;;;;5018039;28;20094;-83
2024/01/20 06:53:15;;;;;;;38.28;18.15;;;-0.70;99.90;;;;;;4994740;28;20565;-83
2024/01/20 06:55:41;;;;;;;40.33;18.45;;;-0.80;99.90;;;;;;4994659;28;20052;-83
2024/01/20 06:58:07;;;;;;;37.60;18.95;;;-0.80;99.90;;;;;;4985421;28;20085;-82
2024/01/20 07:00:32;;;;;;;39.88;18.83;;;-0.80;99.90;;;;;;5011466;28;20053;-82
2024/01/20 07:02:58;;;;;;;40.10;17.33;;;-0.80;99.90;;;;;;5016803;28;20050;-83
2024/01/20 07:05:24;;;;;;;32.63;17.08;;;-0.80;99.90;;;;;;5011260;28;20044;-82
2024/01/20 07:07:49;;;;;;;39.03;19.35;;;-0.80;99.90;;;;;;5011905;28;20125;-82
2024/01/20 07:10:15;;;;;;;40.72;19.85;;;-2.10;99.90;;;;;;4993933;28;20050;-88
2024/01/20 07:12:41;;;;;;;36.30;18.65;;;-0.80;99.90;;;;;;5011546;28;20034;-83
2024/01/20 07:15:07;;;;;;;41.15;18.02;;;-0.80;99.90;;;;;;4994810;28;20037;-82
2024/01/20 07:17:33;;;;;;;35.22;17.83;;;-0.80;99.90;;;;;;4994010;28;20053;-81
2024/01/20 07:19:59;;;;;;;37.85;16.63;;;-0.80;99.90;;;;;;4993383;28;20136;-82
2024/01/20 07:22:25;;;;;;;42.78;18.48;;;-0.90;99.90;;;;;;5011131;28;20121;-83
2024/01/20 07:24:50;;;;;;;40.75;19.75;;;-0.80;99.90;;;;;;5011407;28;20049;-81
2024/01/20 07:27:16;;;;;;;38.13;19.38;;;-0.80;99.90;;;;;;4998144;28;20061;-83
2024/01/20 07:29:41;;;;;;;34.65;18.70;;;0.60;99.90;;;;;;5032461;28;20053;-83
2024/01/20 07:32:07;;;;;;;42.30;19.52;;;-0.70;99.90;;;;;;5031085;28;20616;-82
2024/01/20 07:34:33;;;;;;;42.35;20.40;;;-0.70;99.90;;;;;;5030887;28;20042;-82
2024/01/20 07:36:59;;;;;;;46.05;21.83;;;-0.70;99.90;;;;;;5030682;28;20041;-81
2024/01/20 07:39:24;;;;;;;40.33;18.92;;;-0.90;99.90;;;;;;5030962;28;20041;-81
2024/01/20 07:41:50;;;;;;;37.67;20.35;;;-0.70;99.90;;;;;;5030654;28;20041;-82
2024/01/20 07:44:16;;;;;;;41.47;18.48;;;-0.70;99.90;;;;;;5014396;28;20041;-83
2024/01/20 07:46:41;;;;;;;42.97;20.70;;;-0.70;99.90;;;;;;5014648;28;20496;-84
2024/01/20 07:49:07;;;;;;;41.00;19.73;;;1.00;99.90;;;;;;5030636;28;20076;-81
2024/01/20 07:51:33;;;;;;;47.40;22.80;;;-0.60;99.90;;;;;;5012881;28;20064;-83
2024/01/20 07:53:58;;;;;;;41.20;21.10;;;-0.60;99.90;;;;;;5012449;28;20063;-82
2024/01/20 07:56:24;;;;;;;40.08;19.10;;;-0.60;99.90;;;;;;5013571;28;20049;-82
2024/01/20 07:58:50;;;;;;;41.92;21.25;;;-0.60;99.90;;;;;;5012747;28;20041;-80
2024/01/20 08:01:17;;;;;;;43.88;20.98;;;-0.70;99.90;;;;;;5037951;28;20171;-83
2024/01/20 08:03:43;;;;;;;40.45;20.85;;;-0.60;99.90;;;;;;5012744;28;20511;-82
2024/01/20 08:06:09;;;;;;;44.00;19.88;;;-0.50;99.90;;;;;;5030310;28;20092;-81
2024/01/20 08:08:35;;;;;;;41.15;17.90;;;1.00;99.90;;;;;;5029801;28;20069;-81
2024/01/20 08:11:00;;;;;;;44.40;20.00;;;-0.60;99.90;;;;;;5030299;28;20049;-83
2024/01/20 08:13:26;;;;;;;43.40;21.85;;;-0.40;99.90;;;;;;5013839;28;20050;-80
2024/01/20 08:15:52;;;;;;;42.75;19.63;;;0.50;99.90;;;;;;5031892;28;20054;-85
2024/01/20 08:18:18;;;;;;;41.53;19.98;;;-0.30;99.90;;;;;;5031875;28;20489;-81
2024/01/20 08:20:43;;;;;;;38.67;18.75;;;-0.40;99.90;;;;;;5030024;28;20401;-82
2024/01/20 08:23:09;;;;;;;49.53;21.58;;;-0.40;99.90;;;;;;5012851;28;20045;-82
2024/01/20 08:25:35;;;;;;;42.92;21.40;;;-0.30;99.90;;;;;;5029806;28;20541;-80
2024/01/20 08:28:01;;;;;;;40.72;20.67;;;0.40;99.90;;;;;;5019426;28;20080;-81
2024/01/20 08:30:27;;;;;;;42.05;20.60;;;-0.30;99.90;;;;;;4992814;28;20052;-82
2024/01/20 08:32:52;;;;;;;47.55;21.80;;;-0.30;99.90;;;;;;4992730;28;20058;-81
2024/01/20 08:35:18;;;;;;;43.42;21.05;;;-0.30;99.90;;;;;;4992420;28;20057;-84
2024/01/20 08:37:44;;;;;;;46.10;21.65;;;-0.30;99.90;;;;;;4998827;28;20041;-82
2024/01/20 08:40:10;;;;;;;46.95;21.92;;;-0.20;99.90;;;;;;4992220;28;20045;-82
2024/01/20 08:42:35;;;;;;;43.15;22.42;;;-0.20;99.90;;;;;;5010222;28;20093;-81
2024/01/20 08:45:02;;;;;;;39.72;20.20;;;-0.30;99.90;;;;;;5010558;28;20221;-80
2024/01/20 08:47:27;;;;;;;47.17;21.90;;;-0.20;99.90;;;;;;4993291;28;20049;-80
2024/01/20 08:49:53;;;;;;;40.70;21.33;;;-0.30;99.90;;;;;;4976118;28;20064;-80
2024/01/20 08:52:19;;;;;;;43.35;20.65;;;1.20;99.90;;;;;;4996103;28;20056;-81
2024/01/20 08:54:45;;;;;;;44.00;21.35;;;-0.10;99.90;;;;;;5012862;28;20037;-79
2024/01/20 08:57:10;;;;;;;42.75;20.83;;;-0.10;99.90;;;;;;4994674;28;20493;-81
2024/01/20 08:59:36;;;;;;;48.60;22.77;;;-0.10;99.90;;;;;;4996183;28;20546;-81
2024/01/20 09:02:03;;;;;;;45.00;20.67;;;-0.10;99.90;;;;;;5021414;28;20053;-81
2024/01/20 09:04:29;;;;;;;52.80;21.60;;;1.20;99.90;;;;;;4996015;28;20056;-80
2024/01/20 09:06:55;;;;;;;43.22;19.67;;;-0.10;99.90;;;;;;5013547;28;20397;-83
2024/01/20 09:09:21;;;;;;;42.45;20.60;;;-0.10;99.90;;;;;;5013923;28;20144;-82
2024/01/20 09:11:46;;;;;;;44.75;20.05;;;0.00;99.90;;;;;;4995483;28;20531;-81
2024/01/20 09:14:12;;;;;;;44.22;20.92;;;0.00;99.90;;;;;;4979863;28;20057;-81
2024/01/20 09:16:38;;;;;;;37.17;19.55;;;0.00;99.90;;;;;;5013484;28;20042;-80
2024/01/20 09:19:03;;;;;;;44.65;20.40;;;0.00;99.90;;;;;;5013329;28;20050;-81
2024/01/20 09:21:29;;;;;;;44.67;19.52;;;0.10;99.90;;;;;;5018008;28;20048;-81
2024/01/20 09:23:55;;;;;;;37.78;19.10;;;0.10;99.90;;;;;;5005508;28;20049;-81
2024/01/20 09:26:20;;;;;;;41.92;20.23;;;0.20;99.90;;;;;;5013388;28;20440;-80
2024/01/20 09:28:46;;;;;;;43.78;21.70;;;0.20;99.90;;;;;;4995172;28;20077;-81
2024/01/20 09:31:12;;;;;;;41.03;18.65;;;0.20;99.90;;;;;;5013134;28;20054;-81
2024/01/20 09:33:38;;;;;;;43.80;20.25;;;0.30;99.90;;;;;;5002857;28;20045;-80
2024/01/20 09:36:03;;;;;;;41.97;18.77;;;0.30;99.90;;;;;;4979181;28;20553;-81
2024/01/20 09:38:29;;;;;;;42.15;18.70;;;0.40;99.90;;;;;;4995506;28;20046;-80
2024/01/20 09:40:58;;;;;;;38.13;17.75;;;0.30;99.90;;;;;;5016240;28;20048;-80
2024/01/20 09:43:25;;;;;;;46.65;20.88;;;0.40;99.90;;;;;;5013594;28;20492;-80
2024/01/20 09:45:52;;;;;;;36.22;19.00;;;0.40;99.90;;;;;;5013114;28;20046;-81
2024/01/20 09:48:18;;;;;;;42.60;19.63;;;0.50;99.90;;;;;;4996782;28;20046;-80
2024/01/20 09:50:44;;;;;;;42.90;18.90;;;0.50;99.90;;;;;;5013109;28;20084;-81
2024/01/20 09:53:15;;;;;;;37.90;18.02;;;0.50;99.90;;;;;;5012902;28;20041;-80
2024/01/20 09:55:42;;;;;;;40.90;18.73;;;0.50;99.90;;;;;;5021229;28;20037;-81
2024/01/20 09:58:11;;;;;;;39.75;20.25;;;0.50;99.90;;;;;;4987439;28;20046;-80
2024/01/20 10:00:38;;;;;;;42.42;18.55;;;0.50;99.90;;;;;;5012089;28;20057;-79
2024/01/20 10:03:07;;;;;;;41.58;17.58;;;0.60;99.90;;;;;;4995372;28;20065;-80
2024/01/20 10:05:34;;;;;;;35.90;16.58;;;2.10;99.90;;;;;;5012576;28;20473;-80
2024/01/20 10:08:00;;;;;;;39.85;17.63;;;0.60;99.90;;;;;;4993980;28;20049;-81
2024/01/20 10:10:26;;;;;;;36.60;18.33;;;1.90;99.90;;;;;;5012485;28;20478;-81
2024/01/20 10:12:54;;;;;;;37.65;16.45;;;1.90;99.90;;;;;;5012633;28;20056;-80
2024/01/20 10:15:25;;;;;;;37.13;17.25;;;1.70;99.90;;;;;;4995180;28;20057;-81
2024/01/20 10:17:51;;;;;;;36.92;17.33;;;0.70;99.90;;;;;;4995523;28;20071;-81
2024/01/20 10:20:24;;;;;;;33.22;17.08;;;0.70;99.90;;;;;;5013399;28;20045;-82
2024/01/20 10:22:50;;;;;;;37.08;18.30;;;0.80;99.90;;;;;;4999350;28;20052;-83
2024/01/20 10:25:20;;;;;;;35.22;17.08;;;0.80;99.90;;;;;;4999654;28;20469;-81
2024/01/20 10:27:47;;;;;;;36.28;16.67;;;0.80;99.90;;;;;;4995652;28;20099;-81
2024/01/20 10:30:21;;;;;;;42.05;18.33;;;0.80;99.90;;;;;;5013033;28;20069;-79
2024/01/20 10:32:50;;;;;;;37.20;16.95;;;0.00;99.90;;;;;;4987354;28;20480;-82
2024/01/20 10:35:17;;;;;;;35.08;17.58;;;0.90;99.90;;;;;;4978303;28;20057;-82
2024/01/20 10:37:44;;;;;;;38.85;16.92;;;0.80;99.90;;;;;;4994531;28;20065;-80
2024/01/20 10:40:14;;;;;;;42.85;17.88;;;0.90;99.90;;;;;;4994471;28;20129;-81
2024/01/20 10:42:46;;;;;;;38.97;17.20;;;0.90;99.90;;;;;;4978748;28;20140;-81
2024/01/20 10:45:17;;;;;;;45.15;19.67;;;0.90;99.90;;;;;;5012155;28;20199;-81
2024/01/20 10:47:55;;;;;;;37.05;18.63;;;0.90;99.90;;;;;;4992647;28;20049;-80
2024/01/20 10:50:22;;;;;;;38.65;18.38;;;1.00;99.90;;;;;;5019750;28;20096;-80
2024/01/20 10:52:49;;;;;;;40.20;17.50;;;1.00;99.90;;;;;;5011518;28;20050;-81
2024/01/20 10:55:15;;;;;;;34.45;15.20;;;2.00;99.90;;;;;;5018542;28;20116;-80
2024/01/20 10:57:41;;;;;;;38.55;17.88;;;1.00;99.90;;;;;;4994592;28;20065;-80
2024/01/20 11:00:10;;;;;;;37.35;16.58;;;1.00;99.90;;;;;;5013135;28;20038;-82
2024/01/20 11:02:36;;;;;;;35.63;15.93;;;1.00;99.90;;;;;;4994552;28;20459;-81
2024/01/20 11:05:03;;;;;;;38.70;16.77;;;1.00;99.90;;;;;;5011691;28;20621;-83
2024/01/20 11:07:29;;;;;;;36.65;16.92;;;1.10;99.90;;;;;;5012262;28;20081;-82
2024/01/20 11:09:59;;;;;;;35.10;17.60;;;1.10;99.90;;;;;;4994119;28;20452;-81
2024/01/20 11:12:26;;;;;;;41.63;18.90;;;1.10;99.90;;;;;;4986798;28;20045;-82
2024/01/20 11:14:54;;;;;;;37.72;16.73;;;2.70;99.90;;;;;;4993636;28;20061;-82
2024/01/20 11:17:21;;;;;;;40.30;18.23;;;1.00;99.90;;;;;;5011430;28;20392;-81
2024/01/20 11:19:46;;;;;;;41.25;17.13;;;1.00;99.90;;;;;;5010042;28;20073;-81
2024/01/20 11:22:38;;;;;;;38.78;17.80;;;1.10;99.90;;;;;;4993385;28;20511;-81
2024/01/20 11:25:08;;;;;;;37.13;17.17;;;1.10;99.90;;;;;;4994050;28;20049;-83
2024/01/20 11:27:50;;;;;;;34.42;17.33;;;1.20;99.90;;;;;;5013477;28;20062;-84
2024/01/20 11:30:30;;;;;;;37.58;17.70;;;2.20;99.90;;;;;;5014622;28;20050;-82
2024/01/20 11:32:57;;;;;;;36.88;17.67;;;2.40;99.90;;;;;;5011539;28;20034;-82
2024/01/20 11:35:23;;;;;;;38.70;19.63;;;1.10;99.90;;;;;;4993032;28;20064;-81
2024/01/20 11:37:49;;;;;;;38.78;18.63;;;2.30;99.90;;;;;;4993273;28;20060;-82
2024/01/20 11:40:16;;;;;;;36.45;18.52;;;1.10;99.90;;;;;;5011267;28;20116;-81
2024/01/20 11:42:41;;;;;;;37.65;18.42;;;2.50;99.90;;;;;;5013993;28;20092;-82
2024/01/20 11:45:07;;;;;;;34.95;18.73;;;1.10;99.90;;;;;;4993842;28;20058;-81
2024/01/20 11:47:34;;;;;;;41.60;19.00;;;1.20;99.90;;;;;;5010757;28;20042;-82
2024/01/20 11:50:01;;;;;;;38.38;19.00;;;1.20;99.90;;;;;;4977690;28;20515;-83
2024/01/20 11:52:27;;;;;;;43.45;19.50;;;2.60;99.90;;;;;;4993248;28;20517;-82
2024/01/20 11:54:53;;;;;;;37.83;17.80;;;1.30;99.90;;;;;;5010866;28;20050;-80
2024/01/20 11:57:32;;;;;;;41.08;19.40;;;1.10;99.90;;;;;;5011091;28;20738;-81
2024/01/20 11:59:58;;;;;;;37.67;17.95;;;1.80;99.90;;;;;;4993392;28;20884;-83
2024/01/20 12:02:25;;;;;;;38.17;18.92;;;1.20;99.90;;;;;;5011007;28;20065;-81
2024/01/20 12:04:51;;;;;;;38.63;17.80;;;2.80;99.90;;;;;;5010869;28;20033;-81
2024/01/20 12:07:23;;;;;;;40.67;19.42;;;1.30;99.90;;;;;;5010263;28;20405;-82
2024/01/20 12:09:49;;;;;;;41.95;21.27;;;1.50;99.90;;;;;;4993195;28;20042;-82
2024/01/20 12:12:16;;;;;;;42.65;21.00;;;1.50;99.90;;;;;;4998822;28;20048;-81
2024/01/20 12:14:43;;;;;;;38.63;18.63;;;1.60;99.90;;;;;;4998355;28;20053;-81
2024/01/20 12:17:10;;;;;;;37.70;19.55;;;2.60;99.90;;;;;;4995027;28;20645;-81
2024/01/20 12:19:39;;;;;;;37.50;18.95;;;1.60;99.90;;;;;;4992737;28;20121;-82
2024/01/20 12:22:11;;;;;;;40.63;18.48;;;1.60;99.90;;;;;;5011402;28;20091;-81
2024/01/20 12:24:37;;;;;;;40.10;18.80;;;1.60;99.90;;;;;;4985984;28;20068;-81
2024/01/20 12:27:06;;;;;;;42.15;19.73;;;1.70;99.90;;;;;;5010693;28;20489;-82
2024/01/20 12:29:32;;;;;;;43.70;19.55;;;2.50;99.90;;;;;;5010468;28;20065;-83
2024/01/20 12:31:58;;;;;;;38.67;16.33;;;1.60;99.90;;;;;;5012761;28;20034;-82